Time;durP1;ratioP1;P1;durP2;ratioP2;P2;SDS_P1;SDS_P2;PMS_P1;PMS_P2;Temp;Humidity;BMP_temperature;BMP_pressure;BME280_temperature;BME280_humidity;BME280_pressure;Samples;Min_cycle;Max_cycle;Signal;HPM_P1;HPM_P2
2023/10/23 00:00:53;;;;;;;9.90;3.40;;;;;;;;;;6254274;22;20007;-74
2023/10/23 00:03:19;;;;;;;8.25;3.67;;;;;;;;;;6258071;22;20064;-72
2023/10/23 00:05:46;;;;;;;6.87;3.00;;;;;;;;;;6281392;22;20195;-73
2023/10/23 00:08:11;;;;;;;5.85;2.90;;;;;;;;;;6255595;22;20312;-73
2023/10/23 00:10:39;;;;;;;7.20;3.17;;;;;;;;;;6281258;22;20079;-73
2023/10/23 00:13:04;;;;;;;8.73;2.90;;;;;;;;;;6255952;22;20234;-72
2023/10/23 00:15:34;;;;;;;7.05;2.88;;;;;;;;;;6283015;22;20454;-71
2023/10/23 00:18:02;;;;;;;7.18;2.90;;;;;;;;;;6256195;22;19999;-72
2023/10/23 00:20:27;;;;;;;7.30;2.92;;;;;;;;;;6254363;22;20444;-73
2023/10/23 00:22:52;;;;;;;7.40;3.15;;;;;;;;;;6256777;22;20030;-73
2023/10/23 00:25:18;;;;;;;6.00;3.07;;;;;;;;;;6257593;22;20011;-72
2023/10/23 00:27:43;;;;;;;5.90;2.87;;;;;;;;;;6254059;22;20225;-73
2023/10/23 00:30:11;;;;;;;8.00;3.53;;;;;;;;;;6284933;22;20215;-74
2023/10/23 00:32:37;;;;;;;6.50;2.67;;;;;;;;;;6254986;22;20257;-72
2023/10/23 00:35:02;;;;;;;8.32;2.75;;;;;;;;;;6286490;22;20019;-74
2023/10/23 00:37:27;;;;;;;6.85;3.10;;;;;;;;;;6253498;22;20004;-73
2023/10/23 00:39:52;;;;;;;6.13;3.13;;;;;;;;;;6254948;22;20013;-71
2023/10/23 00:42:18;;;;;;;8.03;2.70;;;;;;;;;;6256709;22;20056;-73
2023/10/23 00:44:45;;;;;;;8.50;2.77;;;;;;;;;;6281905;22;20590;-71
2023/10/23 00:47:13;;;;;;;8.02;3.33;;;;;;;;;;6255684;22;20221;-72
2023/10/23 00:49:38;;;;;;;6.45;2.85;;;;;;;;;;6279784;22;20330;-72
2023/10/23 00:52:05;;;;;;;5.25;2.85;;;;;;;;;;6285000;22;20007;-72
2023/10/23 00:54:32;;;;;;;6.40;2.53;;;;;;;;;;6281365;22;20117;-74
2023/10/23 00:57:01;;;;;;;6.82;2.40;;;;;;;;;;6256788;22;19999;-72
2023/10/23 00:59:29;;;;;;;6.85;2.67;;;;;;;;;;6252893;22;20003;-72
2023/10/23 01:01:54;;;;;;;5.40;2.30;;;;;;;;;;6257597;22;20141;-72
2023/10/23 01:04:19;;;;;;;6.15;2.38;;;;;;;;;;6283350;22;20074;-73
2023/10/23 01:06:47;;;;;;;7.87;2.80;;;;;;;;;;6257046;22;20458;-73
2023/10/23 01:09:12;;;;;;;6.65;2.58;;;;;;;;;;6284259;22;20210;-72
2023/10/23 01:11:37;;;;;;;6.38;2.42;;;;;;;;;;6255849;22;20010;-73
2023/10/23 01:14:05;;;;;;;6.97;2.20;;;;;;;;;;6282989;22;20000;-74
2023/10/23 01:16:30;;;;;;;8.55;2.90;;;;;;;;;;6282952;22;20229;-73
2023/10/23 01:18:55;;;;;;;9.93;2.63;;;;;;;;;;6256876;22;20060;-73
2023/10/23 01:21:23;;;;;;;6.30;2.60;;;;;;;;;;6282703;22;20210;-73
2023/10/23 01:23:49;;;;;;;6.57;2.33;;;;;;;;;;6283049;22;20253;-74
2023/10/23 01:26:16;;;;;;;4.32;2.00;;;;;;;;;;6281458;22;20068;-74
2023/10/23 01:28:41;;;;;;;6.53;2.58;;;;;;;;;;6287585;22;19999;-72
2023/10/23 01:31:09;;;;;;;7.35;2.67;;;;;;;;;;6255850;22;20031;-74
2023/10/23 01:33:34;;;;;;;6.50;2.22;;;;;;;;;;6260018;22;20007;-74
2023/10/23 01:36:02;;;;;;;6.50;2.50;;;;;;;;;;6254827;22;20528;-71
2023/10/23 01:38:30;;;;;;;7.68;2.40;;;;;;;;;;6259698;22;20226;-72
2023/10/23 01:40:57;;;;;;;7.80;2.58;;;;;;;;;;6283367;22;20290;-72
2023/10/23 01:43:25;;;;;;;5.25;2.20;;;;;;;;;;6280167;22;20007;-74
2023/10/23 01:45:53;;;;;;;9.00;2.22;;;;;;;;;;6257770;22;20019;-73
2023/10/23 01:48:21;;;;;;;5.47;2.20;;;;;;;;;;6285299;22;20468;-71
2023/10/23 01:50:47;;;;;;;5.93;2.40;;;;;;;;;;6258609;22;20529;-72
2023/10/23 01:53:14;;;;;;;5.50;2.42;;;;;;;;;;6285243;22;20086;-73
2023/10/23 01:55:40;;;;;;;6.90;2.40;;;;;;;;;;6286838;22;19996;-73
2023/10/23 01:58:05;;;;;;;6.68;2.30;;;;;;;;;;6285926;22;20056;-73
2023/10/23 02:00:33;;;;;;;5.90;2.40;;;;;;;;;;6286672;22;20049;-73
2023/10/23 02:02:58;;;;;;;6.35;2.28;;;;;;;;;;6257551;22;20303;-74
2023/10/23 02:05:26;;;;;;;5.82;2.30;;;;;;;;;;6286252;22;20000;-75
2023/10/23 02:07:51;;;;;;;7.35;2.50;;;;;;;;;;6256227;22;20463;-74
2023/10/23 02:10:16;;;;;;;8.67;2.33;;;;;;;;;;6254512;22;19999;-75
2023/10/23 02:12:41;;;;;;;7.37;2.83;;;;;;;;;;6258099;22;20645;-74
2023/10/23 02:15:09;;;;;;;6.93;2.63;;;;;;;;;;6285480;22;20284;-75
2023/10/23 02:17:34;;;;;;;5.65;2.35;;;;;;;;;;6256541;22;20876;-75
2023/10/23 02:19:59;;;;;;;7.45;2.30;;;;;;;;;;6283560;22;20093;-75
2023/10/23 02:22:25;;;;;;;6.60;2.50;;;;;;;;;;6256670;22;20115;-75
2023/10/23 02:24:50;;;;;;;7.50;2.43;;;;;;;;;;6257442;22;20004;-76
2023/10/23 02:27:15;;;;;;;6.90;2.50;;;;;;;;;;6285866;22;20220;-76
2023/10/23 02:29:40;;;;;;;8.68;3.05;;;;;;;;;;6258721;22;20253;-74
2023/10/23 02:32:07;;;;;;;6.03;2.53;;;;;;;;;;6283246;22;20006;-74
2023/10/23 02:34:33;;;;;;;5.82;2.22;;;;;;;;;;6286035;22;20049;-76
2023/10/23 02:36:58;;;;;;;6.28;2.50;;;;;;;;;;6256311;22;20503;-75
2023/10/23 02:39:24;;;;;;;5.72;2.50;;;;;;;;;;6256938;22;20000;-76
2023/10/23 02:41:49;;;;;;;5.43;2.40;;;;;;;;;;6256127;22;20686;-74
2023/10/23 02:44:14;;;;;;;8.23;2.58;;;;;;;;;;6255145;22;20578;-75
2023/10/23 02:46:40;;;;;;;6.47;2.30;;;;;;;;;;6256870;22;20087;-75
2023/10/23 02:49:08;;;;;;;7.05;2.60;;;;;;;;;;6253485;22;20294;-76
2023/10/23 02:51:38;;;;;;;7.00;2.50;;;;;;;;;;6257735;22;20136;-77
2023/10/23 02:54:04;;;;;;;5.97;2.35;;;;;;;;;;6257219;22;20007;-76
2023/10/23 02:56:29;;;;;;;6.00;2.65;;;;;;;;;;6284909;22;20494;-73
2023/10/23 02:58:57;;;;;;;6.65;2.55;;;;;;;;;;6255058;22;19999;-74
2023/10/23 03:01:24;;;;;;;7.03;2.88;;;;;;;;;;6255196;22;20018;-74
2023/10/23 03:03:50;;;;;;;5.75;2.28;;;;;;;;;;6284762;22;20014;-76
2023/10/23 03:06:16;;;;;;;5.40;2.13;;;;;;;;;;6284327;22;19999;-75
2023/10/23 03:08:43;;;;;;;7.30;2.53;;;;;;;;;;6256561;22;20080;-75
2023/10/23 03:11:11;;;;;;;11.23;2.80;;;;;;;;;;6255008;22;20217;-75
2023/10/23 03:13:36;;;;;;;5.75;2.70;;;;;;;;;;6256923;22;20080;-74
2023/10/23 03:16:02;;;;;;;6.47;2.40;;;;;;;;;;6283090;22;20065;-76
2023/10/23 03:18:30;;;;;;;6.28;2.47;;;;;;;;;;6284870;22;20221;-74
2023/10/23 03:21:01;;;;;;;4.97;2.30;;;;;;;;;;6254968;22;20502;-75
2023/10/23 03:23:30;;;;;;;6.50;2.35;;;;;;;;;;6256302;22;20136;-74
2023/10/23 03:25:56;;;;;;;5.05;2.25;;;;;;;;;;6256091;22;20014;-72
2023/10/23 03:28:21;;;;;;;6.07;2.20;;;;;;;;;;6255664;22;19999;-73
2023/10/23 03:30:47;;;;;;;5.70;2.40;;;;;;;;;;6284812;22;20006;-74
2023/10/23 03:33:13;;;;;;;9.50;2.72;;;;;;;;;;6283348;22;20003;-75
2023/10/23 03:35:45;;;;;;;8.30;2.67;;;;;;;;;;6285929;22;20009;-74
2023/10/23 03:38:12;;;;;;;7.70;2.42;;;;;;;;;;6283338;22;20233;-74
2023/10/23 03:40:37;;;;;;;5.57;2.33;;;;;;;;;;6280426;22;20002;-73
2023/10/23 03:43:02;;;;;;;7.40;2.60;;;;;;;;;;6254270;22;20007;-73
2023/10/23 03:45:27;;;;;;;4.97;2.07;;;;;;;;;;6256639;22;20242;-75
2023/10/23 03:47:53;;;;;;;7.70;2.20;;;;;;;;;;6285737;22;20753;-75
2023/10/23 03:50:18;;;;;;;5.47;2.47;;;;;;;;;;6254111;22;21024;-75
2023/10/23 03:52:43;;;;;;;6.65;2.35;;;;;;;;;;6258284;22;20225;-75
2023/10/23 03:55:09;;;;;;;6.10;2.40;;;;;;;;;;6283092;22;20003;-75
2023/10/23 03:57:36;;;;;;;6.20;2.33;;;;;;;;;;6257175;22;20827;-75
2023/10/23 04:00:02;;;;;;;7.80;2.40;;;;;;;;;;6256193;22;20313;-74
2023/10/23 04:02:29;;;;;;;6.45;2.15;;;;;;;;;;6282418;22;20010;-74
2023/10/23 04:04:55;;;;;;;6.32;2.42;;;;;;;;;;6284052;22;20011;-74
2023/10/23 04:07:20;;;;;;;8.07;2.28;;;;;;;;;;6254864;22;19999;-75
2023/10/23 04:09:50;;;;;;;6.93;2.50;;;;;;;;;;6257931;22;20023;-75
2023/10/23 04:12:15;;;;;;;7.57;2.53;;;;;;;;;;6256488;22;20614;-74
2023/10/23 04:14:44;;;;;;;6.40;2.47;;;;;;;;;;6255080;22;20026;-75
2023/10/23 04:17:09;;;;;;;6.00;2.50;;;;;;;;;;6279019;22;20248;-74
2023/10/23 04:19:34;;;;;;;5.80;2.17;;;;;;;;;;6256550;22;20031;-74
2023/10/23 04:22:00;;;;;;;6.93;2.07;;;;;;;;;;6254896;22;20034;-75
2023/10/23 04:24:27;;;;;;;7.80;2.40;;;;;;;;;;6283102;22;20606;-74
2023/10/23 04:26:52;;;;;;;6.07;2.25;;;;;;;;;;6281812;22;20271;-75
2023/10/23 04:29:17;;;;;;;7.30;2.47;;;;;;;;;;6285744;22;20003;-75
2023/10/23 04:31:43;;;;;;;7.70;2.57;;;;;;;;;;6254379;22;19999;-74
2023/10/23 04:34:09;;;;;;;7.95;3.08;;;;;;;;;;6283937;22;20664;-74
2023/10/23 04:36:34;;;;;;;7.28;2.35;;;;;;;;;;6281573;22;20000;-74
2023/10/23 04:38:59;;;;;;;7.70;2.47;;;;;;;;;;6283456;22;20562;-75
2023/10/23 04:41:24;;;;;;;7.47;2.47;;;;;;;;;;6257197;22;20222;-75
2023/10/23 04:43:50;;;;;;;7.53;2.70;;;;;;;;;;6281773;22;20014;-75
2023/10/23 04:46:15;;;;;;;6.07;2.33;;;;;;;;;;6285207;22;20078;-75
2023/10/23 04:48:40;;;;;;;6.03;2.30;;;;;;;;;;6282215;22;20214;-75
2023/10/23 04:51:05;;;;;;;6.05;2.08;;;;;;;;;;6284035;22;20295;-74
2023/10/23 04:53:31;;;;;;;5.37;2.17;;;;;;;;;;6282083;22;20638;-75
2023/10/23 04:55:58;;;;;;;5.38;2.33;;;;;;;;;;6284402;22;20248;-75
2023/10/23 04:58:23;;;;;;;6.53;2.20;;;;;;;;;;6280764;22;19999;-74
2023/10/23 05:00:48;;;;;;;5.27;2.13;;;;;;;;;;6255304;22;20006;-72
2023/10/23 05:03:16;;;;;;;5.45;2.08;;;;;;;;;;6282113;22;20007;-74
2023/10/23 05:05:51;;;;;;;9.65;2.65;;;;;;;;;;6280462;22;20372;-74
2023/10/23 05:08:16;;;;;;;5.97;2.25;;;;;;;;;;6258163;22;20000;-75
2023/10/23 05:10:42;;;;;;;10.15;2.25;;;;;;;;;;6254623;22;20000;-74
2023/10/23 05:13:09;;;;;;;5.95;2.25;;;;;;;;;;6256749;22;20039;-75
2023/10/23 05:15:34;;;;;;;5.50;2.30;;;;;;;;;;6281961;22;20086;-74
2023/10/23 05:18:00;;;;;;;11.03;2.23;;;;;;;;;;6253001;22;20707;-74
2023/10/23 05:20:25;;;;;;;7.20;2.40;;;;;;;;;;6256673;22;20229;-72
2023/10/23 05:22:53;;;;;;;6.68;2.20;;;;;;;;;;6254532;22;20245;-74
2023/10/23 05:25:18;;;;;;;7.07;2.20;;;;;;;;;;6255988;22;20010;-74
2023/10/23 05:27:43;;;;;;;5.90;2.42;;;;;;;;;;6276406;22;20415;-75
2023/10/23 05:30:08;;;;;;;8.13;2.77;;;;;;;;;;6255295;22;19999;-74
2023/10/23 05:32:40;;;;;;;6.13;2.13;;;;;;;;;;6275058;22;20991;-74
2023/10/23 05:35:05;;;;;;;5.85;2.03;;;;;;;;;;6256125;22;20006;-74
2023/10/23 05:37:36;;;;;;;6.53;2.33;;;;;;;;;;6279535;22;19999;-74
2023/10/23 05:40:04;;;;;;;5.22;2.40;;;;;;;;;;6254488;22;20409;-73
2023/10/23 05:42:30;;;;;;;7.57;3.10;;;;;;;;;;6283127;22;19999;-74
2023/10/23 05:44:56;;;;;;;7.60;2.70;;;;;;;;;;6248158;22;20071;-73
2023/10/23 05:47:21;;;;;;;5.10;2.57;;;;;;;;;;6276189;22;19999;-73
2023/10/23 05:49:46;;;;;;;6.57;2.90;;;;;;;;;;6278989;22;20210;-73
2023/10/23 05:52:11;;;;;;;7.07;3.27;;;;;;;;;;6279245;22;20217;-73
2023/10/23 05:54:39;;;;;;;8.43;3.57;;;;;;;;;;6279699;22;20218;-72
2023/10/23 05:57:04;;;;;;;8.32;3.30;;;;;;;;;;6254601;22;20225;-73
2023/10/23 05:59:32;;;;;;;9.33;2.77;;;;;;;;;;6252627;22;20071;-74
2023/10/23 06:01:57;;;;;;;7.20;2.80;;;;;;;;;;6283525;22;20302;-74
2023/10/23 06:04:22;;;;;;;8.53;3.70;;;;;;;;;;6253605;22;20755;-73
2023/10/23 06:06:47;;;;;;;8.63;3.20;;;;;;;;;;6256670;22;20892;-73
2023/10/23 06:09:13;;;;;;;7.25;2.90;;;;;;;;;;6254151;22;20264;-73
2023/10/23 06:11:40;;;;;;;9.30;2.95;;;;;;;;;;6283841;22;20650;-73
2023/10/23 06:14:06;;;;;;;7.57;2.85;;;;;;;;;;6255665;22;19999;-74
2023/10/23 06:16:31;;;;;;;7.75;2.90;;;;;;;;;;6284575;22;20002;-74
2023/10/23 06:18:56;;;;;;;8.10;2.67;;;;;;;;;;6283772;22;20472;-73
2023/10/23 06:21:26;;;;;;;5.90;2.53;;;;;;;;;;6255506;22;20226;-73
2023/10/23 06:23:51;;;;;;;8.55;2.72;;;;;;;;;;6284042;22;20246;-73
2023/10/23 06:26:17;;;;;;;6.28;2.47;;;;;;;;;;6256133;22;20054;-74
2023/10/23 06:28:44;;;;;;;5.53;2.35;;;;;;;;;;6259791;22;19995;-73
2023/10/23 06:31:10;;;;;;;4.97;1.92;;;;;;;;;;6257335;22;20003;-73
2023/10/23 06:33:38;;;;;;;6.95;2.22;;;;;;;;;;6284329;22;20766;-73
2023/10/23 06:36:04;;;;;;;5.80;2.17;;;;;;;;;;6285010;22;19995;-73
2023/10/23 06:38:31;;;;;;;5.13;2.10;;;;;;;;;;6283107;22;20005;-73
2023/10/23 06:41:01;;;;;;;5.35;2.47;;;;;;;;;;6287378;22;20010;-73
2023/10/23 06:43:26;;;;;;;6.45;1.77;;;;;;;;;;6254470;22;20068;-74
2023/10/23 06:45:51;;;;;;;5.57;1.97;;;;;;;;;;6287708;22;20011;-73
2023/10/23 06:48:17;;;;;;;8.43;2.10;;;;;;;;;;6256129;22;20065;-73
2023/10/23 06:50:47;;;;;;;6.00;2.17;;;;;;;;;;6258986;22;20226;-73
2023/10/23 06:53:17;;;;;;;6.85;2.05;;;;;;;;;;6255372;22;20018;-73
2023/10/23 06:55:51;;;;;;;5.97;2.20;;;;;;;;;;6258323;22;19999;-73
2023/10/23 06:58:18;;;;;;;6.45;2.20;;;;;;;;;;6254926;22;20012;-73
2023/10/23 07:00:44;;;;;;;4.85;1.95;;;;;;;;;;6282472;22;20000;-73
2023/10/23 07:03:09;;;;;;;6.93;2.30;;;;;;;;;;6255203;22;20079;-73
2023/10/23 07:05:34;;;;;;;9.60;2.50;;;;;;;;;;6285014;22;20690;-72
2023/10/23 07:07:59;;;;;;;5.17;2.30;;;;;;;;;;6285531;22;20210;-73
2023/10/23 07:10:25;;;;;;;6.83;2.13;;;;;;;;;;6255227;22;20312;-73
2023/10/23 07:12:50;;;;;;;6.73;2.30;;;;;;;;;;6258329;22;20030;-71
2023/10/23 07:15:15;;;;;;;6.10;2.38;;;;;;;;;;6256004;22;20225;-73
2023/10/23 07:17:40;;;;;;;5.32;2.22;;;;;;;;;;6258735;22;20430;-73
2023/10/23 07:20:06;;;;;;;5.70;2.30;;;;;;;;;;6283672;22;20492;-72
2023/10/23 07:22:37;;;;;;;8.95;2.20;;;;;;;;;;6257416;22;20502;-73
2023/10/23 07:25:02;;;;;;;5.60;2.00;;;;;;;;;;6256829;22;21047;-72
2023/10/23 07:27:30;;;;;;;7.13;2.58;;;;;;;;;;6282259;22;19995;-71
2023/10/23 07:29:55;;;;;;;6.43;2.42;;;;;;;;;;6285827;22;19995;-72
2023/10/23 07:32:20;;;;;;;6.07;2.80;;;;;;;;;;6283068;22;20009;-72
2023/10/23 07:34:46;;;;;;;6.60;2.40;;;;;;;;;;6257794;22;20197;-72
2023/10/23 07:37:18;;;;;;;6.80;2.50;;;;;;;;;;6284312;22;20236;-72
2023/10/23 07:39:47;;;;;;;5.03;2.10;;;;;;;;;;6282206;22;20392;-71
2023/10/23 07:42:13;;;;;;;5.03;2.15;;;;;;;;;;6284503;22;20077;-72
2023/10/23 07:44:38;;;;;;;6.25;2.15;;;;;;;;;;6283106;22;20745;-71
2023/10/23 07:47:04;;;;;;;5.73;2.50;;;;;;;;;;6285083;22;20011;-72
2023/10/23 07:49:29;;;;;;;5.32;2.13;;;;;;;;;;6255972;22;20221;-72
2023/10/23 07:51:57;;;;;;;7.03;2.30;;;;;;;;;;6257845;22;20003;-71
2023/10/23 07:54:22;;;;;;;10.18;4.32;;;;;;;;;;6256141;22;20006;-72
2023/10/23 07:56:47;;;;;;;8.50;4.57;;;;;;;;;;6284409;22;20007;-72
2023/10/23 07:59:13;;;;;;;8.48;3.20;;;;;;;;;;6285170;22;19999;-71
2023/10/23 08:01:38;;;;;;;7.85;3.42;;;;;;;;;;6282675;22;20425;-71
2023/10/23 08:04:04;;;;;;;12.05;5.10;;;;;;;;;;6285364;22;20011;-72
2023/10/23 08:06:30;;;;;;;5.70;3.10;;;;;;;;;;6281329;22;19996;-71
2023/10/23 08:08:55;;;;;;;5.53;2.40;;;;;;;;;;6283597;22;20056;-72
2023/10/23 08:11:20;;;;;;;6.00;2.65;;;;;;;;;;6282945;22;20007;-72
2023/10/23 08:13:46;;;;;;;7.53;2.33;;;;;;;;;;6254823;22;20007;-72
2023/10/23 08:16:11;;;;;;;5.50;1.83;;;;;;;;;;6281509;22;20006;-72
2023/10/23 08:18:39;;;;;;;6.03;2.10;;;;;;;;;;6257641;22;19995;-71
2023/10/23 08:21:09;;;;;;;5.18;1.85;;;;;;;;;;6257310;22;20233;-72
2023/10/23 08:23:36;;;;;;;6.97;1.90;;;;;;;;;;6280154;22;20015;-71
2023/10/23 08:26:03;;;;;;;4.88;1.90;;;;;;;;;;6284411;22;20002;-71
2023/10/23 08:28:28;;;;;;;5.72;2.67;;;;;;;;;;6281938;22;20088;-71
2023/10/23 08:30:53;;;;;;;6.77;2.30;;;;;;;;;;6284759;22;20037;-72
2023/10/23 08:33:19;;;;;;;7.83;2.30;;;;;;;;;;6281554;22;20218;-72
2023/10/23 08:35:47;;;;;;;7.13;2.22;;;;;;;;;;6285161;22;20677;-71
2023/10/23 08:38:12;;;;;;;4.90;2.00;;;;;;;;;;6283490;22;20120;-72
2023/10/23 08:40:38;;;;;;;6.68;2.53;;;;;;;;;;6256779;22;20094;-72
2023/10/23 08:43:04;;;;;;;5.30;1.90;;;;;;;;;;6256521;22;20003;-71
2023/10/23 08:45:29;;;;;;;4.55;1.80;;;;;;;;;;6281893;22;20018;-71
2023/10/23 08:47:55;;;;;;;5.78;1.75;;;;;;;;;;6257976;22;19999;-73
2023/10/23 08:50:22;;;;;;;6.83;1.90;;;;;;;;;;6282926;22;20485;-71
2023/10/23 08:52:49;;;;;;;4.90;1.60;;;;;;;;;;6257738;22;20226;-72
2023/10/23 08:55:17;;;;;;;4.68;1.80;;;;;;;;;;6256875;22;20004;-72
2023/10/23 08:57:52;;;;;;;5.38;1.77;;;;;;;;;;6284345;22;19995;-71
2023/10/23 09:00:17;;;;;;;7.38;2.15;;;;;;;;;;6256950;22;20446;-71
2023/10/23 09:02:42;;;;;;;4.82;2.00;;;;;;;;;;6255520;22;20114;-72
2023/10/23 09:05:08;;;;;;;6.13;2.40;;;;;;;;;;6258959;22;20003;-73
2023/10/23 09:07:33;;;;;;;5.32;1.75;;;;;;;;;;6281651;22;20078;-72
2023/10/23 09:10:05;;;;;;;6.57;2.20;;;;;;;;;;6259052;22;20002;-72
2023/10/23 09:12:31;;;;;;;6.65;1.90;;;;;;;;;;6283344;22;20011;-73
2023/10/23 09:15:11;;;;;;;6.47;2.20;;;;;;;;;;6255467;22;20497;-72
2023/10/23 09:17:37;;;;;;;6.63;1.90;;;;;;;;;;6256420;22;20753;-71
2023/10/23 09:20:18;;;;;;;6.72;1.85;;;;;;;;;;6282815;22;19995;-71
2023/10/23 09:22:47;;;;;;;7.07;1.90;;;;;;;;;;6283542;22;19999;-72
2023/10/23 09:25:23;;;;;;;4.77;1.80;;;;;;;;;;6255363;22;20090;-70
2023/10/23 09:27:48;;;;;;;5.15;1.90;;;;;;;;;;6281670;22;20504;-70
2023/10/23 09:30:15;;;;;;;6.68;1.90;;;;;;;;;;6282369;22;20019;-68
2023/10/23 09:32:41;;;;;;;4.85;1.67;;;;;;;;;;6281823;22;20512;-70
2023/10/23 09:35:10;;;;;;;4.93;1.83;;;;;;;;;;6280742;22;19999;-70
2023/10/23 09:37:38;;;;;;;7.88;2.88;;;;;;;;;;6283295;22;19995;-70
2023/10/23 09:40:11;;;;;;;7.72;2.70;;;;;;;;;;6254573;22;19999;-70
2023/10/23 09:42:37;;;;;;;5.05;2.00;;;;;;;;;;6257217;22;20018;-70
2023/10/23 09:45:04;;;;;;;6.47;1.90;;;;;;;;;;6253312;22;20160;-69
2023/10/23 09:47:29;;;;;;;5.05;1.90;;;;;;;;;;6283646;22;19995;-70
2023/10/23 09:49:55;;;;;;;4.80;1.60;;;;;;;;;;6256863;22;20076;-70
2023/10/23 09:52:24;;;;;;;6.35;1.70;;;;;;;;;;6256184;22;20011;-70
2023/10/23 09:54:50;;;;;;;5.50;2.05;;;;;;;;;;6255859;22;20010;-69
2023/10/23 09:57:17;;;;;;;5.55;1.80;;;;;;;;;;6283238;22;20018;-69
2023/10/23 09:59:44;;;;;;;6.78;1.80;;;;;;;;;;6255680;22;20604;-69
2023/10/23 10:02:10;;;;;;;4.60;1.67;;;;;;;;;;6254620;22;19999;-68
2023/10/23 10:04:58;;;;;;;5.20;1.90;;;;;;;;;;6256648;22;20010;-69
2023/10/23 10:07:31;;;;;;;5.63;1.90;;;;;;;;;;6231969;22;20011;-69
2023/10/23 10:09:56;;;;;;;4.57;1.55;;;;;;;;;;6255546;22;20060;-70
2023/10/23 10:12:22;;;;;;;5.88;2.00;;;;;;;;;;6254269;22;20011;-69
2023/10/23 10:14:47;;;;;;;6.53;2.10;;;;;;;;;;6283300;22;20006;-69
2023/10/23 10:17:16;;;;;;;7.50;2.58;;;;;;;;;;6285289;22;20021;-69
2023/10/23 10:19:42;;;;;;;5.28;2.30;;;;;;;;;;6256007;22;20003;-69
2023/10/23 10:22:10;;;;;;;4.82;1.88;;;;;;;;;;6256584;22;20003;-69
2023/10/23 10:24:37;;;;;;;6.03;2.00;;;;;;;;;;6255251;22;20708;-70
2023/10/23 10:27:03;;;;;;;7.18;2.08;;;;;;;;;;6256785;22;20057;-70
2023/10/23 10:29:29;;;;;;;5.47;2.03;;;;;;;;;;6281795;22;19996;-69
2023/10/23 10:32:08;;;;;;;5.82;1.80;;;;;;;;;;6256248;22;20003;-69
2023/10/23 10:34:34;;;;;;;6.28;1.88;;;;;;;;;;6281231;22;19996;-69
2023/10/23 10:37:00;;;;;;;5.63;1.55;;;;;;;;;;6256174;22;20003;-69
2023/10/23 10:39:52;;;;;;;6.03;2.30;;;;;;;;;;6256256;22;20069;-69
2023/10/23 10:42:17;;;;;;;4.72;1.73;;;;;;;;;;6224287;22;20004;-69
2023/10/23 10:44:52;;;;;;;8.30;2.13;;;;;;;;;;6256429;22;20081;-68
2023/10/23 10:47:18;;;;;;;6.45;2.13;;;;;;;;;;6282751;22;20552;-69
2023/10/23 10:49:46;;;;;;;5.70;2.22;;;;;;;;;;6258129;22;20003;-69
2023/10/23 10:52:18;;;;;;;4.40;1.67;;;;;;;;;;6256660;22;20060;-68
2023/10/23 10:54:43;;;;;;;8.48;2.17;;;;;;;;;;6257720;22;20275;-69
2023/10/23 10:57:13;;;;;;;4.93;2.00;;;;;;;;;;6256429;22;20417;-69
2023/10/23 10:59:40;;;;;;;6.63;2.90;;;;;;;;;;6285428;22;20206;-68
2023/10/23 11:02:07;;;;;;;6.47;2.53;;;;;;;;;;6284566;22;20010;-69
2023/10/23 11:04:35;;;;;;;6.15;1.98;;;;;;;;;;6284085;22;19995;-68
2023/10/23 11:07:00;;;;;;;5.95;2.13;;;;;;;;;;6257546;22;20917;-69
2023/10/23 11:09:25;;;;;;;7.18;2.30;;;;;;;;;;6284729;22;20006;-69
2023/10/23 11:11:51;;;;;;;5.50;2.10;;;;;;;;;;6259494;22;20006;-68
2023/10/23 11:14:16;;;;;;;5.13;2.10;;;;;;;;;;6253233;22;20225;-68
2023/10/23 11:16:41;;;;;;;5.47;2.00;;;;;;;;;;6286467;22;20342;-69
2023/10/23 11:19:06;;;;;;;5.97;1.70;;;;;;;;;;6255657;22;20224;-69
2023/10/23 11:21:34;;;;;;;5.20;2.03;;;;;;;;;;6284612;22;19995;-69
2023/10/23 11:24:02;;;;;;;5.80;2.08;;;;;;;;;;6284257;22;20762;-68
2023/10/23 11:26:27;;;;;;;7.72;2.17;;;;;;;;;;6256163;22;20003;-69
2023/10/23 11:28:53;;;;;;;5.40;2.17;;;;;;;;;;6284135;22;20022;-69
2023/10/23 11:31:20;;;;;;;5.78;2.00;;;;;;;;;;6283758;22;20210;-69
2023/10/23 11:33:50;;;;;;;7.50;1.95;;;;;;;;;;6257422;22;20003;-69
2023/10/23 11:36:15;;;;;;;5.15;2.08;;;;;;;;;;6284036;22;20863;-68
2023/10/23 11:38:40;;;;;;;4.55;1.98;;;;;;;;;;6283730;22;20003;-67
2023/10/23 11:41:05;;;;;;;5.43;1.83;;;;;;;;;;6282650;22;20005;-69
2023/10/23 11:43:31;;;;;;;6.97;2.20;;;;;;;;;;6255039;22;20254;-68
2023/10/23 11:45:56;;;;;;;4.63;2.00;;;;;;;;;;6283824;22;20340;-68
2023/10/23 11:48:24;;;;;;;5.50;2.07;;;;;;;;;;6281601;22;20000;-69
2023/10/23 11:50:49;;;;;;;5.97;2.10;;;;;;;;;;6255381;22;20986;-69
2023/10/23 11:53:16;;;;;;;5.65;2.08;;;;;;;;;;6252947;22;20014;-69
2023/10/23 11:55:44;;;;;;;6.80;2.00;;;;;;;;;;6252286;22;20003;-69
2023/10/23 11:58:09;;;;;;;6.95;2.00;;;;;;;;;;6282716;22;19995;-69
2023/10/23 12:00:34;;;;;;;5.30;1.50;;;;;;;;;;6282499;22;20010;-69
2023/10/23 12:03:00;;;;;;;6.88;1.77;;;;;;;;;;6282055;22;20241;-69
2023/10/23 12:05:25;;;;;;;5.78;2.03;;;;;;;;;;6280707;22;20388;-70
2023/10/23 12:07:56;;;;;;;5.55;1.92;;;;;;;;;;6256026;22;19999;-69
2023/10/23 12:10:24;;;;;;;6.55;2.50;;;;;;;;;;6283750;22;20067;-69
2023/10/23 12:12:52;;;;;;;4.60;2.10;;;;;;;;;;6282257;22;20002;-67
2023/10/23 12:15:17;;;;;;;6.07;2.58;;;;;;;;;;6283211;22;20057;-70
2023/10/23 12:17:45;;;;;;;6.70;3.23;;;;;;;;;;6280510;22;20517;-71
2023/10/23 12:20:11;;;;;;;4.88;2.47;;;;;;;;;;6255569;22;20222;-69
2023/10/23 12:22:38;;;;;;;7.30;2.40;;;;;;;;;;6279727;22;20010;-69
2023/10/23 12:25:04;;;;;;;6.03;2.17;;;;;;;;;;6284262;22;20022;-69
2023/10/23 12:27:30;;;;;;;5.22;2.08;;;;;;;;;;6252085;22;20792;-69
2023/10/23 12:29:57;;;;;;;7.82;2.22;;;;;;;;;;6254773;22;19999;-69
2023/10/23 12:32:23;;;;;;;7.18;2.38;;;;;;;;;;6281240;22;20007;-68
2023/10/23 12:34:50;;;;;;;4.53;1.80;;;;;;;;;;6284476;22;19999;-70
2023/10/23 12:37:15;;;;;;;6.07;1.92;;;;;;;;;;6282455;22;20006;-67
2023/10/23 12:39:41;;;;;;;6.43;2.10;;;;;;;;;;6282874;22;19999;-69
2023/10/23 12:42:06;;;;;;;4.10;1.90;;;;;;;;;;6259284;22;20264;-69
2023/10/23 12:44:34;;;;;;;5.13;2.08;;;;;;;;;;6282666;22;20937;-69
2023/10/23 12:46:59;;;;;;;4.40;1.80;;;;;;;;;;6284599;22;19995;-69
2023/10/23 12:49:27;;;;;;;5.35;2.08;;;;;;;;;;6254006;22;20010;-70
2023/10/23 12:51:52;;;;;;;6.00;2.25;;;;;;;;;;6256944;22;20030;-69
2023/10/23 12:54:17;;;;;;;5.53;2.20;;;;;;;;;;6284074;22;20080;-69
2023/10/23 12:56:43;;;;;;;6.40;2.17;;;;;;;;;;6257121;22;20648;-70
2023/10/23 12:59:08;;;;;;;6.10;2.17;;;;;;;;;;6282770;22;20214;-68
2023/10/23 13:01:33;;;;;;;6.27;2.17;;;;;;;;;;6284122;22;20384;-70
2023/10/23 13:03:59;;;;;;;8.57;2.42;;;;;;;;;;6283493;22;20251;-70
2023/10/23 13:06:25;;;;;;;7.32;2.28;;;;;;;;;;6255753;22;20010;-69
2023/10/23 13:08:51;;;;;;;7.45;2.30;;;;;;;;;;6256754;22;19999;-69
2023/10/23 13:11:16;;;;;;;6.05;2.38;;;;;;;;;;6282680;22;20098;-69
2023/10/23 13:13:44;;;;;;;7.23;2.43;;;;;;;;;;6285305;22;20027;-69
2023/10/23 13:16:09;;;;;;;5.97;2.13;;;;;;;;;;6284531;22;21067;-69
2023/10/23 13:18:34;;;;;;;6.32;2.28;;;;;;;;;;6255720;22;20042;-68
2023/10/23 13:21:02;;;;;;;9.27;2.30;;;;;;;;;;6283970;22;20007;-70
2023/10/23 13:23:27;;;;;;;5.68;2.30;;;;;;;;;;6284460;22;20003;-70
2023/10/23 13:25:55;;;;;;;5.63;2.20;;;;;;;;;;6287674;22;20116;-71
2023/10/23 13:28:22;;;;;;;6.78;2.40;;;;;;;;;;6285665;22;20232;-69
2023/10/23 13:30:50;;;;;;;6.45;2.35;;;;;;;;;;6286592;22;20075;-69
2023/10/23 13:33:18;;;;;;;9.00;2.75;;;;;;;;;;6257937;22;20094;-69
2023/10/23 13:35:44;;;;;;;7.53;2.60;;;;;;;;;;6256926;22;20027;-69
2023/10/23 13:38:09;;;;;;;5.72;2.10;;;;;;;;;;6256712;22;20027;-70
2023/10/23 13:40:34;;;;;;;5.40;2.38;;;;;;;;;;6258042;22;20063;-70
2023/10/23 13:43:00;;;;;;;5.82;2.40;;;;;;;;;;6258599;22;20015;-70
2023/10/23 13:45:25;;;;;;;7.53;2.10;;;;;;;;;;6282479;22;20018;-70
2023/10/23 13:47:52;;;;;;;4.77;2.23;;;;;;;;;;6259260;22;20049;-70
2023/10/23 13:50:20;;;;;;;7.45;2.70;;;;;;;;;;6282288;22;20289;-71
2023/10/23 13:52:46;;;;;;;8.43;2.45;;;;;;;;;;6256517;22;20076;-71
2023/10/23 13:55:11;;;;;;;7.28;2.75;;;;;;;;;;6281675;22;20636;-70
2023/10/23 13:57:36;;;;;;;7.68;2.70;;;;;;;;;;6257474;22;20087;-71
2023/10/23 14:00:06;;;;;;;5.90;2.27;;;;;;;;;;6254481;22;20615;-70
2023/10/23 14:02:34;;;;;;;6.85;2.50;;;;;;;;;;6258085;22;20241;-70
2023/10/23 14:04:59;;;;;;;6.32;2.55;;;;;;;;;;6255385;22;20460;-70
2023/10/23 14:07:25;;;;;;;6.65;2.60;;;;;;;;;;6257939;22;19999;-71
2023/10/23 14:09:50;;;;;;;7.40;2.20;;;;;;;;;;6253832;22;20078;-69
2023/10/23 14:12:15;;;;;;;8.07;2.75;;;;;;;;;;6255963;22;20064;-67
2023/10/23 14:14:41;;;;;;;7.30;2.50;;;;;;;;;;6255189;22;20046;-68
2023/10/23 14:17:06;;;;;;;6.60;3.00;;;;;;;;;;6278474;22;20407;-67
2023/10/23 14:19:31;;;;;;;5.73;2.40;;;;;;;;;;6284117;22;20070;-68
2023/10/23 14:21:57;;;;;;;7.10;2.33;;;;;;;;;;6282746;22;20271;-71
2023/10/23 14:24:26;;;;;;;6.03;2.20;;;;;;;;;;6284370;22;20685;-69
2023/10/23 14:26:52;;;;;;;7.15;2.80;;;;;;;;;;6255862;22;20003;-69
2023/10/23 14:29:17;;;;;;;7.85;2.58;;;;;;;;;;6256662;22;20001;-69
2023/10/23 14:31:47;;;;;;;6.63;2.35;;;;;;;;;;6254182;22;20110;-69
2023/10/23 14:34:13;;;;;;;6.50;2.72;;;;;;;;;;6284889;22;20061;-68
2023/10/23 14:36:38;;;;;;;7.45;2.90;;;;;;;;;;6284843;22;20341;-69
2023/10/23 14:39:06;;;;;;;7.05;2.90;;;;;;;;;;6284562;22;20090;-68